Scotland Neck, North Carolina
Current Conditions -  °F | °C
As of 4:15 PM on Thursday 23 Oct 2014 (Local Time) from KETC Reporting Station
Clear Clear  
Wind Chill: 69°   Ceiling: Unl
Heat Index: 69°   Visibility: 10mi
Dew Point: 47°   Wind: 10mph
Humidity: 45%   Direction: 280°W
Pressure: 29.9"   Gusts: NA
Location:  36.13°N, 77.42°W
Report Text: KETC 232015Z AUTO 28009KT 10SM CLR 21/08 A2990 RMK AO2 T02060081
Loading
Personal Weather Stations






























Interactive Weather Map
Tropical Storm Tracking
New forecast layout! Learn more

10-Day Weather Forecast

Advertisements
Track Severe Weather on mobile